Les Eléphants d’Hannibal - 25/07/2015

7 Km


Pl Do. Nom - Surname Prénom - Name S-Cat /cat Club - Team TEMPS - Time Km/h /sx
1 448 BACHIR AMAR MSE 1 BEZIERS CHEMINOTS ATHLETISME M 00:23:37 17,8 1
2 478 POUMEROL FABRICE MSE 2 BEZIERS CHEMINOTS ATHLETISME M 00:24:41 17,0 2
3 450 FEREZ THIERRY MV2 1 MONTPELLIER ATHLETIC RUNNING C 00:24:42 17,0 3
4 405 GIRAUDEAU ROMAIN MSE 3 MARATHON SETOIS ATHLETISME 00:25:02 16,8 4
5 415 SALAS EMMANUEL MSE 4 REAL MADRID 00:25:51 16,2 5
6 408 DUCAMP LIONEL MV1 1 VEDAS ENDURANCE 00:26:01 16,1 6
7 471 ALIGNAN NICOLAS MJU 1 ADISSAN 00:26:07 16,1 7
8 477 DOUARD FREDERIC MSE 5 MONTPELLIER 00:26:09 16,1 8
9 456 REVERTE ROMAIN MSE 6 ST GEORGES D'ORQUES 00:27:02 15,5 9
10 432 RAPY JEAN PAUL MV2 2 MONTPELLIER 00:27:25 15,3 10
11 447 GANGLUFF MURCIA ROSARIO FV2 1 BEZIERS CHEMINOTS ATHLETISME M 00:27:26 15,3 1
12 469 GAYRAUD CORINNE FSE 1 M2AM 00:27:41 15,2 2
13 462 ROCHAT JEAN CHARLES MV2 3 MONTPELLIER 00:28:16 14,9 11
14 454 DAHON JEAN PHILIPPE MV1 2 GANGES COURT 00:28:23 14,8 12
15 423 POTARD ARNAUD MSE 7 TRISALEVE ANNEMASSE AGGLO 00:29:10 14,4 13
16 443 BOSC GUILLAUME MV1 3 TRI SETE 00:29:15 14,4 14
17 445 COMBES DOMINIQUE FV3 1 BEZIERS CHEMINOTS ATHLETISME M 00:29:25 14,3 3
18 461 EXIGA MICHEL MV1 4 MIREVAL 00:29:50 14,1 15
19 466 MONSERRA ALEXANDRE MV1 5 LHSA 00:29:55 14,0 16
20 465 SIRE MAXIME MSE 8 VIC LA GARDIOLE 00:30:03 14,0 17
21 464 MORENO JEAN PIERRE MV3 1 VIC LA GARDIOLE 00:30:05 14,0 18
22 470 COMBE CHRISTOPHE MV3 2 CAP MELGUEIL 00:30:21 13,8 19
23 430 CHEVALIER RENAUD MSE 9 THIBERVILLE 00:30:43 13,7 20
24 426 DANIEL CLEMENT MSE 10 VIC LA GARDIOLE 00:31:13 13,5 21
25 419 SINGLA JEAN CLAUDE MV2 4 LOUPIAN TRI-NATURE 00:31:32 13,3 22
26 460 CHARLES NICOLAS MJU 2 FRONTIGNAN 00:31:38 13,3 23
27 467 COUTANT MICHEL MV3 3 VEDAS ENDURANCE 00:32:10 13,1 24
28 435 BECHTEL ANTOINE MES 1 MONTPELLIER 00:32:21 13,0 25
29 424 COLOMB DAMIEN MSE 11 VIC LA GARDIOLE 00:32:26 12,9 26
30 427 GAVEN BRUNO MV3 4 BALARUC 00:32:42 12,8 27
31 407 DUBOIS ESTELLE FCA 1 ASPTT NANCY 00:32:50 12,8 4
32 406 DUBOIS ERIC MV1 6 ASPTT NANCY 00:32:50 12,8 28
33 444 LAUTRU GERALDINE FV2 2 BEZIERS CHEMINOTS ATHLETISME M 00:33:09 12,7 5
34 433 GIRARD DENIS MV2 5 MIREVAL 00:33:39 12,5 29
35 474 RIOULA JOEL MV2 6 MONTPELLIER 00:33:43 12,5 30
36 425 AYACHI MEHDI MSE 12 VIC LA GARDIOLE 00:33:49 12,4 31
37 457 DANJAN DERRAMOND BERNARD MV2 7 COUREUR DE ST GEORGES 00:34:00 12,3 32
38 452 PELAT JEAN CLAUDE MV3 5 LUNEL ATHLETISME 00:34:12 12,3 33
39 428 CHEVALIER RICHARD MV1 7 THIBERVILLE 00:34:40 12,1 34
40 412 TEISSIER SANDRA FSE 2 LES COUREURS DE ST GEORGES D'ORQUES 00:34:55 12,0 6
41 429 BOUCHE CELINE FSE 3 THIBERVILLE 00:35:00 12,0 7
42 455 PICARD AXELLE FCA 2 GRAINE DE CHAMPIONS 00:35:17 11,9 8
43 417 ANDRE LUC MV3 6   00:35:34 11,8 35
44 473 OMAR MICHEL MSE 13 LA GRANDE MOTTE 00:35:45 11,7 36
45 413 SALTET PHILIPPE MV2 8   00:35:48 11,7 37
46 479 JOYEUX ISABELLE FV1 1 MONTPELLIER 00:36:06 11,6 9
47 440 PELLETIER MAXIME MJU 3 CORMERAY 00:36:54 11,4 38
48 468 MONSERRA KARINE FSE 4 STE ARRESSE 00:36:58 11,4 10
49 416 GEST Hervé MV2 9 BESSAN RUNNING 00:37:02 11,3 39
50 438 BAILLY SALINS ANNETTE FV3 2 LIVRY GARGAN 00:37:23 11,2 11
51 463 ROCHAT ARMELLE FV2 3 ACNA 00:37:27 11,2 12
52 403 NAUDIN FRANÇOIS MV2 10   00:37:33 11,2 40
53 414 BLANCHET PATRICE MV1 8 JOGGING CASTELNAU 00:37:51 11,1 41
54 449 CAROLO GILBERT MV4 1 ASL LATTES 00:38:09 11,0 42
55 437 POMMIER RICHARD MV1 9 MONTPELLIER 00:39:00 10,8 43
56 458 VOISIN ANDRE MV3 7 FRONTIGNAN 00:39:30 10,6 44
57 472 CHARLES SYLVIE FV3 3 SALON DE PROV. 00:39:36 10,6 13
58 411 CHOLBI CLAUDE MV1 10 LES LOUPS OCCITANS GÉNÉRATION SED 00:39:39 10,6 45
59 439 PERRAULT GERARD MV3 8 LIVRY GARGAN 00:39:45 10,6 46
60 431 MATHIRON PASCAL MV3 9 SCHNEIDER ELEC DIVISION 00:40:55 10,3 47
61 401 PASSET STEPHANIE FV1 2   00:41:00 10,2 14
62 410 ADROVER BRIGITTE FV2 4   00:41:03 10,2 15
63 434 DENIZOT ROLAND MV3 10 CAP D'AGDE 00:41:06 10,2 48
64 89 COMAS JEAN MARIE MV3 11 BALARUC CYCLO 00:42:36 9,9 49
65 402 QUILES RENEE FV2 5   00:43:05 9,7 16
66 475 MOLLE JOCELLYNE FV1 3 SETE 00:43:06 9,7 17
67 476 ANFOSSO MARIE VERONIQUE FV2 6 SETE 00:43:45 9,6 18
68 409 COURATIN LUCIE FV1 4   00:44:14 9,5 19
69 446 DELORE MICHEL MV5 1 ST GENIES LAVAL 00:44:58 9,3 50
70 418 FLAMIGNI VERONIQUE FV1 5 AUCUN 00:45:17 9,3 20
71 436 POMMIER BENJAMIN MES 2 MONTPELLIER 00:45:27 9,2 51
72 451 FERRIER PIERRE MV3 12 Arles Athlétisme 00:45:28 9,2 52
73 453 PERRIN BONNET JEAN MARC MV2 11 FRONTIGNAN 00:47:31 8,8 53
74 459 ESTEVE NICOLE FV2 7 FRONTIGNAN 00:48:10 8,7 21
75 441 GOUDARD MARYSE FV4 1 ST GEORGES D'ORQUES 00:48:10 8,7 22
76 480 LEDUC EVELYNE FSE 5 VIC LA GARDIOLE 00:50:08 8,4 23
77 420 TANNEAU JULIE FSE 6   00:50:13 8,4 24
78 404 PISSARRA CARLOS MV1 11   00:50:30 8,3 54
79 422 FABREGA HÉLÈNE FSE 7   00:51:46 8,1 25
80 442 BIGAND MYRIAM FV3 4 VIC LA GARDIOLE 00:53:03 7,9 26
81 421 BOURDEL STÉPHANIE FSE 8   00:55:43 7,5 27